Terminal Aerodrome Forecast
Issued by NWS

Home | Current Version | Previous Version | Graphics & Text | Print | Product List | Glossary On
Versions: 1 2 3 4 5 6 7 8 9 10 11 12
836
FTUS43 KTOP 211743
TAFMHK
TAF
KMHK 211743Z 2118/2218 01018G28KT P6SM FEW250
     FM212200 36014KT P6SM SKC
     FM220400 01004KT P6SM SKC=

USA.gov is the U.S. government's official web portal to all federal, state and local government web resources and services.